Belize, Belize

1:06 PM CST on August 29, 2015 (GMT -0600)
Old Airport Road, Ladyville | | Change Station
CLOSE
Current Station
Personal Weather Station
Location: Belize,
Elevation: 26 ft
Nearby Weather Stations

Elev 26 ft 17.54 °N, 88.30 °W | Updated 15 seconds ago

Scattered Clouds
Scattered Clouds
88.4 °F
Feels Like 99 °F
N
8.6
Wind Variable Wind from ENE
Gusts 12.0 mph

Today
High -- | Low -- °F
--% Chance of Precip.
Yesterday
High -- | Low -- °F
Precip. -- in
5:38 AM 6:09 PM
Full, 100% visible
Pressure 29.93 in
Visibility 6.2 miles
Clouds Scattered Clouds 2300 ft
Heat Index 99 °F
Dew Point 75 °F
Humidity 65%
Rainfall 0.05 in
Snow Depth Not available.
UV 13 out of 12
Pollen Not available.
Air Quality Not available.
Flu Activity Not available.
METAR MZBZ 291900Z 07009KT 9999 SCT023 33/25 A2993 Q1013 NOSIG
Pressure 29.93 in
Visibility 6.2 miles
Clouds Scattered Clouds 2300 ft
Heat Index 99 °F
Dew Point 75 °F
Humidity 65%
Rainfall 0.05 in
Snow Depth Not available.
UV 13 out of 12
Pollen Not available.
Air Quality Not available.
Flu Activity Not available.
METAR MZBZ 291900Z 07009KT 9999 SCT023 33/25 A2993 Q1013 NOSIG

10-Day Weather Forecast

×

Almanac

Astronomy

Aug. 29, 2015 Rise Set
Actual Time
Civil Twilight
Nautical Twilight
Astronomical Twilight
Moon
Length of Visible Light
Length of Day
Tomorrow will be .
, % of the Moon is Illuminated

Today's Extremes

Country Highs Country Lows

Community

WunderPhotos

Upload Photos

1,850,777 photos uploaded!

WunderBlogs® & News

Nearby

Air Quality

  Air Quality AQ Index Pollutant
Not available.

Snow Depth

Station Depth Elevation

Earthquake Activity

City Distance Mag. Time & Date
Minimum magnitude displayed is 2.5.

Coastal Water Temperatures

Place Temperature

Stations

Nearby Weather Stations

Station Location Temp. Windchill Dew Point Humidity Wind Precip. Elev Updated Type